Tiempo atmosférico en la estación meteorológica de San Bartolome Tirajana, Las Tirajanas, Las Palmas (960 m.)



Fecha
DESCASC
Temp. máxima en grados centígrados (hora)
DESCASC
Temp. mínima en grados centígrados (hora)
DESCASC
Temp. media en grados centígrados
DESCASC
Racha de viento máxima en m/sg (hora)
DESCASC
Velocidad máxima media en intervalos de 10 minutos(hora)
DESCASC
Precipitaciones diarias en mm
DESCASC
Precipitaciones de 00:00 a 06:00 en mm
DESCASC
Precipitaciones de 06:00 a 12:00 en mm
DESCASC
Precipitaciones de 12:00 a 18:00 en mm
DESCASC
Precipitaciones de 18:00 a 24:00 en mm
DESCASC
23-06-2019 25.8 (14:20) 13.3 (04:00) 19.5 6.11 (12:20) 2.22 (13:20) 0 0 0 0 0
22-06-2019 25.3 (14:20) 12 (07:20) 18.6 6.11 (15:50) 2.22 (13:10) 0 0 0 0 0
21-06-2019 25.5 (14:50) 12.5 (07:40) 19 5.83 (13:10) 2.5 (13:40) 0 0 0 0 0
20-06-2019 24.5 (13:20) 12.1 (00:00) 18.3 6.11 (12:50) 1.94 (12:20) 0 0 0 0 0
19-06-2019 -- (--) -- (--) -- -- (--) -- (--) -- -- -- -- 0
18-06-2019 -- (--) -- (--) -- -- (--) -- (--) -- 0 0 0 --
17-06-2019 25.3 (15:40) 12.5 (00:00) 18.9 6.11 (15:00) 1.94 (02:40) 0 0 0 0 0
16-06-2019 23.3 (14:40) 10.4 (00:00) 16.8 6.11 (15:50) 2.22 (14:10) 0 0 0 0 0
15-06-2019 22.9 (13:30) 10.1 (00:00) 16.5 8.33 (13:40) 2.5 (13:00) 0 0 0 0 0
14-06-2019 18.5 (10:50) 10.2 (00:00) 14.3 5.56 (10:50) 2.22 (13:30) 0 0 0 0 0
13-06-2019 21.4 (13:10) 12.4 (00:00) 16.9 6.67 (12:40) 2.5 (14:20) 0 0 0 0 0
12-06-2019 22.8 (14:20) 12.2 (00:00) 17.5 6.11 (13:40) 2.5 (14:40) 0 0 0 0 0
11-06-2019 24.2 (15:10) 12.5 (00:00) 18.4 5.56 (13:50) 2.22 (13:50) 0 0 0 0 0
10-06-2019 24.9 (15:30) 13.3 (00:00) 19.1 6.11 (15:40) 2.22 (13:30) 0 0 0 0 0
09-06-2019 24.3 (15:50) 12.3 (00:00) 18.3 6.67 (14:40) 2.22 (06:20) 0 0 0 0 0
08-06-2019 22.1 (17:20) 12.3 (00:00) 17.2 7.22 (13:10) 2.5 (15:40) 0 0 0 0 0
07-06-2019 24 (16:50) 10 (00:00) 17 7.78 (14:10) 3.33 (14:10) 0 0 0 0 0
06-06-2019 22.4 (14:50) 12.6 (00:00) 17.5 6.67 (13:30) 2.22 (15:30) 0 0 0 0 0
05-06-2019 23.4 (13:00) 14.5 (00:00) 18.9 6.39 (15:10) 2.78 (14:40) 0 0 0 0 0
04-06-2019 29.9 (12:30) 18.2 (00:00) 24.1 12.5 (00:20) 7.22 (00:20) 0 0 0 0 0
03-06-2019 35.3 (14:00) 25.4 (00:00) 30.3 16.94 (21:10) 10 (21:50) 0 0 0 0 0
02-06-2019 33.9 (13:20) 20.1 (00:00) 27 11.94 (22:00) 3.89 (22:00) 0 0 0 0 0
01-06-2019 28.8 (14:10) 19.6 (00:00) 24.2 6.67 (05:10) 2.5 (05:10) 0 0 0 0 0
31-05-2019 29.2 (12:10) 18.6 (00:00) 23.9 5.28 (12:20) 2.5 (12:20) 0 0 0 0 0
30-05-2019 28.5 (15:50) 17.6 (00:00) 23.1 5.56 (14:40) 2.22 (13:00) 0 0 0 0 0
29-05-2019 26.4 (15:40) 16.6 (00:00) 21.5 5.83 (12:10) 2.22 (15:20) 0 0 0 0 0
28-05-2019 27.8 (13:10) 17.3 (00:00) 22.5 7.22 (02:20) 2.78 (02:20) 0 0 0 0 0
27-05-2019 27.3 (17:30) 15.4 (00:00) 21.3 6.67 (15:00) 2.78 (12:50) 0 0 0 0 0

Gráficas

Temp. máximas Temp. mínimas Temp. medias Precipitaciones Rachas de viento máximas Velocidades máximas media en intervalos de 10 minutos

Datos horarios

Fecha y hora oficial Temperatura (ºC) Velocidad del viento (km/h) Dirección del viento Racha (km/h) Dirección de racha Precipitación (mm) Presión (hPa) Tendencia (hPa) Humedad (%)
2019-06-25 23:00:00 17.4 3 Este 8 Este 0 -- -- 92
2019-06-25 22:00:00 17.9 3 Este 6 Este 0 -- -- 89
2019-06-25 21:00:00 18.8 2 Sudeste 8 Este 0 -- -- 85
2019-06-25 20:00:00 19.6 3 Nordeste 10 Sur 0 -- -- 82
2019-06-25 19:00:00 19.7 6 Sur 15 Sudeste 0 -- -- 83
2019-06-25 18:00:00 22.3 5 Sudeste 15 Sudeste 0 -- -- 72
2019-06-25 17:00:00 21.7 4 Este 12 Sudeste 0 -- -- 74
2019-06-25 16:00:00 21.7 3 Este 11 Este 0 -- -- 74
2019-06-25 15:00:00 20.5 5 Este 10 Este 0 -- -- 79
2019-06-25 14:00:00 20.7 4 Este 13 Sudeste 0 -- -- 79
2019-06-25 13:00:00 23.1 3 Este 17 Sur 0 -- -- 70
2019-06-25 12:00:00 24.4 7 Sudeste 23 Este 0 -- -- 64
2019-06-25 11:00:00 24.3 8 Este 17 Sudeste 0 -- -- 61
2019-06-25 10:00:00 22.8 4 Este 13 Este 0 -- -- 60
2019-06-25 09:00:00 20 5 Nordeste 13 Este 0 -- -- 67
2019-06-25 08:00:00 16.5 0 Calma 4 Noroeste 0 -- -- 75
2019-06-25 07:00:00 16.4 2 Noroeste 8 Noroeste 0 -- -- 73
2019-06-25 06:00:00 16.8 4 Norte 10 Noroeste 0 -- -- 70
2019-06-25 05:00:00 17.2 4 Sudeste 6 Noroeste 0 -- -- 80
2019-06-25 04:00:00 17.3 3 Noroeste 6 Noroeste 0 -- -- 73
2019-06-25 03:00:00 17.4 2 Oeste 5 Sudoeste 0 -- -- 74
2019-06-25 02:00:00 17.5 4 Noroeste 5 Oeste 0 -- -- 78
2019-06-25 01:00:00 17.7 3 Oeste 5 Oeste 0 -- -- 77
2019-06-25 00:00:00 18.5 0 Calma 5 Sudoeste 0 -- -- 74
2019-06-24 23:00:00 18.7 3 Sudoeste 6 Noroeste 0 -- -- 77
2019-06-24 22:00:00 18.4 3 Oeste 5 Noroeste 0 -- -- 86
2019-06-24 21:00:00 19.6 0 Calma 9 Este 0 -- -- 83
2019-06-24 20:00:00 21.4 3 Este 11 Sudeste 0 -- -- 76
2019-06-24 19:00:00 22.4 3 Este 13 Este 0 -- -- 73
2019-06-24 18:00:00 23.7 4 Este 14 Este 0 -- -- 67
2019-06-24 17:00:00 25.2 6 Este 15 Sur 0 -- -- 62
2019-06-24 16:00:00 26.1 5 Este 19 Sudeste 0 -- -- 59
2019-06-24 15:00:00 24.7 9 Sudeste 20 Sudeste 0 -- -- 61
2019-06-24 14:00:00 25.4 6 Sudeste 17 Sudeste 0 -- -- 58
2019-06-24 13:00:00 24.4 6 Sudeste 18 Sudeste 0 -- -- 61
2019-06-24 12:00:00 23.9 5 Sudeste 14 Este 0 -- -- 62
2019-06-24 11:00:00 22.7 6 Este 15 Este 0 -- -- 66
2019-06-24 10:00:00 21.6 5 Este 15 Este 0 -- -- 69
2019-06-24 09:00:00 18.1 5 Nordeste 9 Este 0 -- -- 80
2019-06-24 08:00:00 15.8 2 Nordeste 8 Sudeste 0 -- -- 89
2019-06-24 07:00:00 15.1 2 Norte 9 Noroeste 0 -- -- 77
2019-06-24 06:00:00 14.8 3 Oeste 8 Oeste 0 -- -- 91
2019-06-24 05:00:00 15.8 3 Oeste 7 Noroeste 0 -- -- 91
2019-06-24 04:00:00 16 2 Este 5 Noroeste 0 -- -- 91
2019-06-24 03:00:00 16.2 2 Nordeste 5 Sudeste 0 -- -- 93
2019-06-24 02:00:00 16.4 2 Este 5 Este 0 -- -- 91
2019-06-24 01:00:00 16.9 0 Calma 7 Este 0 -- -- 91
2019-06-24 00:00:00 17 3 Este 6 Este 0 -- -- 91
2019-06-23 23:00:00 17.1 2 Sudeste 6 Sudeste 0 -- -- 90
2019-06-23 22:00:00 17.1 3 Este 6 Nordeste 0 -- -- 90
2019-06-23 21:00:00 17.3 3 Este 9 Este 0 -- -- 88
2019-06-23 20:00:00 18.8 4 Este 13 Este 0 -- -- 80
2019-06-23 19:00:00 20.7 4 Este 14 Este 0 -- -- 72
2019-06-23 18:00:00 22.9 5 Este 14 Este 0 -- -- 63
2019-06-23 17:00:00 24.3 5 Este 17 Este 0 -- -- 60
2019-06-23 16:00:00 25.5 4 Este 19 Este 0 -- -- 55
2019-06-23 15:00:00 25.8 6 Este 21 Este 0 -- -- 55
2019-06-23 14:00:00 25.7 5 Este 21 Nordeste 0 -- -- 55
2019-06-23 13:00:00 24.5 6 Este 22 Sudeste 0 -- -- 58
2019-06-23 12:00:00 24.2 5 Este 15 Sudeste 0 -- -- 56
2019-06-23 11:00:00 22.1 5 Este 14 Este 0 -- -- 62
2019-06-23 10:00:00 19.6 5 Este 13 Este 0 -- -- 69
2019-06-23 09:00:00 18 4 Este 9 Este 0 -- -- 74
2019-06-23 08:00:00 15.2 0 Calma 9 Noroeste 0 -- -- 72
2019-06-23 07:00:00 13.6 5 Oeste 7 Oeste 0 -- -- 85
2019-06-23 06:00:00 15.7 3 Sudeste 6 Oeste 0 -- -- 75
2019-06-23 05:00:00 13.3 3 Oeste 6 Noroeste 0 -- -- 87
2019-06-23 04:00:00 13.3 5 Oeste 7 Noroeste 0 -- -- 93
2019-06-23 03:00:00 14.7 3 Noroeste 5 Noroeste 0 -- -- 79
2019-06-23 02:00:00 14.8 3 Noroeste 6 Noroeste 0 -- -- 80
2019-06-23 01:00:00 14.8 2 Este 4 Noroeste 0 -- -- 90
2019-06-23 00:00:00 15 2 Noroeste 5 Nordeste 0 -- -- 92
2019-06-22 23:00:00 15.4 3 Este 5 Este 0 -- -- 90
2019-06-22 22:00:00 16.3 3 Este 5 Noroeste 0 -- -- 86
2019-06-22 21:00:00 17.3 3 Este 8 Sudeste 0 -- -- 82
2019-06-22 20:00:00 19.3 3 Este 12 Sudeste 0 -- -- 72
2019-06-22 19:00:00 21.5 4 Este 19 Este 0 -- -- 63
2019-06-22 18:00:00 23.2 6 Este 18 Este 0 -- -- 58
2019-06-22 17:00:00 24.3 4 Este 17 Sudeste 0 -- -- 56
2019-06-22 16:00:00 24.9 6 Sudeste 22 Sudeste 0 -- -- 55
2019-06-22 15:00:00 25.2 5 Este 18 Nordeste 0 -- -- 54
2019-06-22 14:00:00 25.1 4 Este 20 Sudeste 0 -- -- 55
2019-06-22 13:00:00 24.4 5 Este 18 Este 0 -- -- 55
2019-06-22 12:00:00 23 5 Este 17 Sudeste 0 -- -- 58
2019-06-22 11:00:00 21 6 Este 16 Este 0 -- -- 62
2019-06-22 10:00:00 19.3 4 Este 13 Este 0 -- -- 69
2019-06-22 09:00:00 16.4 4 Nordeste 12 Nordeste 0 -- -- 78
2019-06-22 08:00:00 12.9 3 Noroeste 7 Oeste 0 -- -- 83
2019-06-22 07:00:00 12.3 3 Sudoeste 7 Sudoeste 0 -- -- 89
2019-06-22 06:00:00 13 2 Norte 6 Este 0 -- -- 76
2019-06-22 05:00:00 13 0 Calma 9 Sudoeste 0 -- -- 68
2019-06-22 04:00:00 13.1 2 Sudoeste 4 Nordeste 0 -- -- 88
2019-06-22 03:00:00 14.6 3 Este 6 Oeste 0 -- -- 84
2019-06-22 02:00:00 14.4 2 Norte 7 Noroeste 0 -- -- 72
2019-06-22 01:00:00 14.8 0 Calma 5 Nordeste 0 -- -- 91
2019-06-22 00:00:00 15.2 3 Este 6 Este 0 -- -- 91
2019-06-21 23:00:00 15.6 2 Este 6 Este 0 -- -- 90
2019-06-21 22:00:00 15.7 3 Sudeste 6 Este 0 -- -- 88
2019-06-21 21:00:00 17 0 Calma 7 Este 0 -- -- 81
2019-06-21 20:00:00 18.4 3 Este 8 Este 0 -- -- 76
2019-06-21 19:00:00 19.6 3 Este 10 Este 0 -- -- 71
2019-06-21 18:00:00 20.4 4 Este 19 Sudeste 0 -- -- 68
2019-06-21 17:00:00 23.8 5 Este 20 Este 0 -- -- 58
2019-06-21 16:00:00 24.7 5 Este 19 Este 0 -- -- 54
2019-06-21 15:00:00 25 6 Este 21 Sudeste 0 -- -- 54
2019-06-21 14:00:00 23.2 6 Sudeste 21 Sudeste 0 -- -- 58
2019-06-21 13:00:00 23.8 6 Este 19 Sudeste 0 -- -- 56
2019-06-21 12:00:00 23 7 Este 19 Sudeste 0 -- -- 57
2019-06-21 11:00:00 20.7 6 Este 16 Nordeste 0 -- -- 62
2019-06-21 10:00:00 19.3 4 Nordeste 13 Nordeste 0 -- -- 67
2019-06-21 09:00:00 15.1 3 Norte 6 Noroeste 0 -- -- 85
2019-06-21 08:00:00 13 2 Este 6 Este 0 -- -- 94
2019-06-21 07:00:00 12.9 0 Calma 6 Oeste 0 -- -- 91
2019-06-21 06:00:00 13 3 Oeste 5 Noroeste 0 -- -- 91
2019-06-21 05:00:00 13.8 2 Norte 7 Noroeste 0 -- -- 90
2019-06-21 04:00:00 14.4 2 Sur 4 Sur 0 -- -- 92
2019-06-21 03:00:00 14.7 0 Calma 4 Oeste 0 -- -- 90
2019-06-21 02:00:00 14.9 0 Calma 5 Sur 0 -- -- 90
2019-06-21 01:00:00 15 2 Sur 5 Sudeste 0 -- -- 91
2019-06-21 00:00:00 15.2 2 Sudoeste 5 Sudoeste 0 -- -- 88
2019-06-20 23:00:00 15.9 3 Sudeste 10 Sudeste 0 -- -- 88
2019-06-20 22:00:00 16.5 2 Sur 6 Este 0 -- -- 86
2019-06-20 21:00:00 17.3 3 Sudeste 7 Sur 0 -- -- 81
2019-06-20 20:00:00 18.2 3 Sudeste 10 Sudeste 0 -- -- 78
2019-06-20 19:00:00 19.4 5 Sudeste 13 Sur 0 -- -- 73
2019-06-20 18:00:00 20.7 6 Sur 15 Sudeste 0 -- -- 68
2019-06-20 17:00:00 21.6 4 Este 14 Este 0 -- -- 64
2019-06-20 16:00:00 22.6 5 Sudeste 21 Sudeste 0 -- -- 61
2019-06-20 15:00:00 23.7 5 Este 20 Sudeste 0 -- -- 58
2019-06-20 14:00:00 22.6 4 Este 22 Este 0 -- -- 61
2019-06-20 13:00:00 23.7 5 Este 22 Este 0 -- -- 56
2019-06-20 12:00:00 23.3 6 Este 18 Este 0 -- -- 55
2019-06-20 11:00:00 21.3 5 Nordeste 15 Este 0 -- -- 60
2019-06-20 10:00:00 19.2 4 Este 12 Nordeste 0 -- -- 66
2019-06-20 09:00:00 16.3 4 Nordeste 10 Este 0 -- -- 79
2019-06-20 08:00:00 12.7 0 Calma 8 Noroeste 0 -- -- 88
2019-06-20 07:00:00 12.2 3 Noroeste 5 Noroeste 0 -- -- 91
2019-06-20 06:00:00 12.6 0 Calma 9 Noroeste 0 -- -- 93
2019-06-20 05:00:00 12.8 4 Oeste 6 Noroeste 0 -- -- 89
2019-06-20 04:00:00 14.2 0 Calma 4 Sur 0 -- -- 87
2019-06-20 03:00:00 14.6 0 Calma 5 Sudeste 0 -- -- 91
2019-06-20 02:00:00 14.8 2 Este 4 Este 0 -- -- 93
2019-06-20 01:00:00 15.3 3 Este 5 Este 0 -- -- 92
2019-06-20 00:00:00 15.7 0 Calma 6 Sudeste 0 -- -- 91
2019-06-19 23:00:00 16.3 0 Calma 9 Este 0 -- -- 90
2019-06-19 22:00:00 16.9 3 Este 10 Sudeste 0 -- -- 87
2019-06-19 21:00:00 17.5 3 Sudeste 8 Este 0 -- -- 85
2019-06-19 20:00:00 18.3 4 Sudeste 9 Sudeste 0 -- -- 82
2019-06-19 19:00:00 19.5 4 Sudeste 11 Este 0 -- -- 77
2019-06-19 18:00:00 20.6 3 Este 14 Este 0 -- -- 73
2019-06-19 17:00:00 20.9 4 Este 11 Este 0 -- -- 72
2019-06-19 16:00:00 19.2 3 Nordeste 11 Este 0 -- -- 79
2019-06-19 15:00:00 18.4 4 Sudeste 12 Sudeste 0 -- -- 81
2019-06-19 14:00:00 18.8 3 Sur -- -- -- -- -- 79
2019-06-19 13:00:00 -- -- -- -- -- -- -- -- --
2019-06-19 12:00:00 -- -- -- -- -- -- -- -- --
2019-06-19 11:00:00 -- -- -- -- -- -- -- -- --
2019-06-19 10:00:00 -- -- -- -- -- -- -- -- --
2019-06-19 09:00:00 -- -- -- -- -- -- -- -- --
2019-06-19 08:00:00 -- -- -- -- -- -- -- -- --
2019-06-19 07:00:00 -- -- -- -- -- -- -- -- --
2019-06-19 06:00:00 -- -- -- -- -- -- -- -- --
2019-06-19 05:00:00 -- -- -- -- -- -- -- -- --
2019-06-19 04:00:00 -- -- -- -- -- -- -- -- --
2019-06-19 03:00:00 -- -- -- -- -- -- -- -- --
2019-06-19 02:00:00 -- -- -- -- -- -- -- -- --
2019-06-19 01:00:00 -- -- -- -- -- -- -- -- --
2019-06-19 00:00:00 -- -- -- -- -- -- -- -- --
2019-06-18 23:00:00 -- -- -- -- -- -- -- -- --
2019-06-18 22:00:00 -- -- -- -- -- -- -- -- --
2019-06-18 21:00:00 -- -- -- -- -- -- -- -- --
2019-06-18 20:00:00 -- -- -- -- -- -- -- -- --
2019-06-18 19:00:00 -- -- -- -- -- -- -- -- --
2019-06-18 18:00:00 21.8 3 Sudeste 15 Sudeste 0 -- -- 67
2019-06-18 17:00:00 21.5 5 Este 15 Este 0 -- -- 68
2019-06-18 16:00:00 21.5 5 Este 19 Este 0 -- -- 69
2019-06-18 15:00:00 23.7 4 Este 18 Este 0 -- -- 61
2019-06-18 14:00:00 23 5 Nordeste 20 Este 0 -- -- 63
2019-06-18 13:00:00 23.7 4 Este 18 Este 0 -- -- 60
2019-06-18 12:00:00 24.4 5 Este 19 Este 0 -- -- 57
2019-06-18 11:00:00 22.3 6 Este 15 Este -- -- -- 60
2019-06-18 10:00:00 21.1 6 Este 13 Este 0 -- -- 64
2019-06-18 09:00:00 18.3 5 Nordeste 10 Este 0 -- -- 70
2019-06-18 08:00:00 14.8 3 Oeste 6 Sudoeste 0 -- -- 82
2019-06-18 07:00:00 14.5 0 Calma 4 Sudoeste 0 -- -- 88
2019-06-18 06:00:00 14.9 2 Sudeste 4 Sudeste 0 -- -- 87
2019-06-18 05:00:00 15.1 0 Calma 5 Noroeste 0 -- -- 87
2019-06-18 04:00:00 15.2 2 Norte -- -- 0 -- -- 87
2019-06-18 03:00:00 15.5 0 Calma 4 Sudeste 0 -- -- 85
2019-06-18 02:00:00 15.6 3 Noroeste 4 Noroeste 0 -- -- 86
2019-06-18 01:00:00 16.1 2 Este 4 Este 0 -- -- 85
2019-06-18 00:00:00 15.7 4 Oeste 5 Sudeste 0 -- -- 87
2019-06-17 23:00:00 16 5 Oeste 6 Oeste 0 -- -- 86
2019-06-17 22:00:00 16.2 2 Noroeste 4 Noroeste 0 -- -- 87
2019-06-17 21:00:00 16.8 2 Este 8 Nordeste 0 -- -- 84
2019-06-17 20:00:00 18.7 4 Este 10 Este 0 -- -- 76
2019-06-17 19:00:00 20.3 4 Este 14 Este 0 -- -- 70
2019-06-17 18:00:00 22.6 6 Este 17 Sudeste 0 -- -- 61
2019-06-17 17:00:00 24.4 5 Este 18 Este 0 -- -- 56
2019-06-17 16:00:00 24.9 7 Este 19 Este 0 -- -- 54
2019-06-17 15:00:00 25 5 Este 22 Este 0 -- -- 53
2019-06-17 14:00:00 24.9 6 Este 19 Sudeste 0 -- -- 52
2019-06-17 13:00:00 25 5 Este 19 Sudeste 0 -- -- 50
2019-06-17 12:00:00 23.1 6 Este 19 Este 0 -- -- 53
2019-06-17 11:00:00 22.1 5 Este 15 Este 0 -- -- 54
2019-06-17 10:00:00 20.1 6 Este 14 Este 0 -- -- 60
2019-06-17 09:00:00 18.9 4 Este 8 Nordeste 0 -- -- 58
2019-06-17 08:00:00 16.3 2 Sudoeste 9 Sudeste 0 -- -- 48
2019-06-17 07:00:00 15.5 0 Calma 9 Noroeste 0 -- -- 50
2019-06-17 06:00:00 14 5 Noroeste 7 Noroeste 0 -- -- 60
2019-06-17 05:00:00 13.9 2 Este 8 Sur 0 -- -- 80
2019-06-17 04:00:00 14.4 3 Sur 9 Noroeste 0 -- -- 60
2019-06-17 03:00:00 13.4 4 Este 12 Oeste 0 -- -- 85
2019-06-17 02:00:00 12.7 3 Sur 6 Oeste 0 -- -- 90
2019-06-17 01:00:00 13 3 Sudoeste 8 Noroeste 0 -- -- 88
2019-06-17 00:00:00 13.4 3 Este 5 Sudeste 0 -- -- 86
2019-06-16 23:00:00 13.5 3 Noroeste 5 Oeste 0 -- -- 87
2019-06-16 22:00:00 14 2 Nordeste 4 Nordeste 0 -- -- 85
2019-06-16 21:00:00 15.2 2 Sudeste 7 Sudeste 0 -- -- 79
2019-06-16 20:00:00 17 3 Este 10 Nordeste 0 -- -- 73
2019-06-16 19:00:00 19.2 5 Este 14 Este 0 -- -- 65
2019-06-16 18:00:00 21.7 5 Este 13 Este 0 -- -- 57
2019-06-16 17:00:00 22.3 6 Este 18 Nordeste 0 -- -- 56
2019-06-16 16:00:00 22.6 7 Este 22 Este 0 -- -- 55
2019-06-16 15:00:00 22.9 6 Este 19 Este 0 -- -- 54
2019-06-16 14:00:00 22.3 6 Este 19 Este 0 -- -- 56
2019-06-16 13:00:00 22.3 6 Este 21 Sudeste 0 -- -- 56
2019-06-16 12:00:00 21.2 6 Este 17 Nordeste 0 -- -- 57
2019-06-16 11:00:00 19.6 5 Este 13 Este 0 -- -- 58
2019-06-16 10:00:00 17 5 Este 13 Este 0 -- -- 64
2019-06-16 09:00:00 13.8 4 Nordeste 9 Nordeste 0 -- -- 79
2019-06-16 08:00:00 11.7 0 Calma 9 Noroeste 0 -- -- 88
2019-06-16 07:00:00 11.4 3 Oeste 7 Oeste 0 -- -- 91
2019-06-16 06:00:00 10.7 3 Sudoeste 6 Oeste 0 -- -- 91
2019-06-16 05:00:00 11.8 2 Oeste 6 Noroeste 0 -- -- 87
2019-06-16 04:00:00 11.6 2 Oeste 5 Noroeste 0 -- -- 89
2019-06-16 03:00:00 12 0 Calma 4 Sur 0 -- -- 91
2019-06-16 02:00:00 12.5 3 Este 5 Este 0 -- -- 88
2019-06-16 01:00:00 12.9 2 Este 7 Este 0 -- -- 87
2019-06-16 00:00:00 13.3 3 Este 9 Este 0 -- -- 85
2019-06-15 23:00:00 13.5 3 Este 7 Este 0 -- -- 85
2019-06-15 22:00:00 14 3 Este 8 Este 0 -- -- 84
2019-06-15 21:00:00 14.7 3 Sur 8 Sur 0 -- -- 80
2019-06-15 20:00:00 15.5 3 Este 9 Sudeste 0 -- -- 76
2019-06-15 19:00:00 16.9 3 Sudeste 14 Sudeste 0 -- -- 70
2019-06-15 18:00:00 19 5 Este 16 Nordeste 0 -- -- 64
2019-06-15 17:00:00 19.9 6 Este 22 Este 0 -- -- 60
2019-06-15 16:00:00 20.6 5 Este 19 Este 0 -- -- 59
2019-06-15 15:00:00 21.7 6 Este 23 Este 0 -- -- 55
2019-06-15 14:00:00 22.9 6 Este 30 Este 0 -- -- 49
2019-06-15 13:00:00 21.7 9 Este 20 Sudeste 0 -- -- 49
2019-06-15 12:00:00 20.3 6 Este 21 Este 0 -- -- 51
2019-06-15 11:00:00 18.2 6 Este 14 Este 0 -- -- 59
2019-06-15 10:00:00 16.5 5 Este 17 Este 0 -- -- 65
2019-06-15 09:00:00 14.4 3 Nordeste 10 Nordeste 0 -- -- 70
2019-06-15 08:00:00 10.5 3 Noroeste 7 Noroeste 0 -- -- 83
2019-06-15 07:00:00 10.8 4 Noroeste 8 Noroeste 0 -- -- 81
2019-06-15 06:00:00 11.7 2 Sudoeste 6 Sudeste 0 -- -- 80
2019-06-15 05:00:00 11.7 3 Nordeste 6 Nordeste 0 -- -- 79
2019-06-15 04:00:00 11.7 2 Este 4 Sudeste 0 -- -- 80
2019-06-15 03:00:00 12 0 Calma 5 Sudeste 0 -- -- 86
2019-06-15 02:00:00 12.4 2 Nordeste 5 Este 0 -- -- 83
2019-06-15 01:00:00 12.6 0 Calma 5 Este 0 -- -- 82
2019-06-15 00:00:00 12.9 2 Este 6 Este 0 -- -- 79
2019-06-14 23:00:00 13.3 2 Este 7 Sur 0 -- -- 80
2019-06-14 22:00:00 13.6 0 Calma 8 Sur 0 -- -- 81
2019-06-14 21:00:00 13.9 3 Sudeste 11 Este 0 -- -- 80
2019-06-14 20:00:00 14.7 2 Nordeste 12 Sudeste 0 -- -- 77
2019-06-14 19:00:00 15.4 4 Este 9 Sudeste 0 -- -- 75
2019-06-14 18:00:00 15.8 4 Este 10 Este 0 -- -- 72
2019-06-14 17:00:00 15.9 3 Este 14 Este 0 -- -- 72
2019-06-14 16:00:00 16.2 5 Este 15 Nordeste 0 -- -- 74
2019-06-14 15:00:00 16.5 3 Sudoeste 9 Sudeste 0 -- -- 71
2019-06-14 14:00:00 15.7 4 Oeste 16 Sudoeste 0 -- -- 72
2019-06-14 13:00:00 16 6 Sur 17 Sudoeste 0 -- -- 70
2019-06-14 12:00:00 17.1 5 Sur 20 Sur 0 -- -- 64
2019-06-14 11:00:00 18.3 6 Sudoeste 20 Sur 0 -- -- 57
2019-06-14 10:00:00 15.4 4 Sur 10 Nordeste 0 -- -- 65
2019-06-14 09:00:00 14.2 4 Este 8 Nordeste 0 -- -- 72
2019-06-14 08:00:00 10.9 2 Noroeste 9 Oeste 0 -- -- 86
2019-06-14 07:00:00 10.2 5 Oeste 7 Noroeste 0 -- -- 87
2019-06-14 06:00:00 10.6 2 Oeste 6 Sudoeste 0 -- -- 85
2019-06-14 05:00:00 11.2 3 Oeste 6 Oeste 0 -- -- 86
2019-06-14 04:00:00 11 2 Sudoeste 5 Oeste 0 -- -- 89
2019-06-14 03:00:00 11.6 0 Calma 6 Noroeste 0 -- -- 89
2019-06-14 02:00:00 12 0 Calma 6 Sur 0 -- -- 89
2019-06-14 01:00:00 12.4 3 Sudoeste 7 Sur 0 -- -- 88
2019-06-14 00:00:00 12.8 2 Sur 8 Sur 0 -- -- 85
2019-06-13 23:00:00 13.2 2 Sudeste 9 Oeste 0 -- -- 76
2019-06-13 22:00:00 13.8 3 Nordeste 7 Sur 0 -- -- 82
2019-06-13 21:00:00 14.5 2 Este 8 Sudeste 0 -- -- 80
2019-06-13 20:00:00 14.7 3 Sudeste 9 Sur 0 -- -- 80
2019-06-13 19:00:00 15.7 5 Sur 16 Este 0 -- -- 75
2019-06-13 18:00:00 17.3 4 Sur 16 Sur 0 -- -- 66
2019-06-13 17:00:00 17.6 5 Sudeste 14 Sudeste 0 -- -- 66
2019-06-13 16:00:00 18.2 5 Este 17 Sur 0 -- -- 65
2019-06-13 15:00:00 19 4 Nordeste 22 Sur 0 -- -- 62
2019-06-13 14:00:00 19.1 8 Sudeste 22 Sudeste 0 -- -- 62
2019-06-13 13:00:00 21 5 Este 24 Este 0 -- -- 57
2019-06-13 12:00:00 19.5 5 Sudeste 17 Este 0 -- -- 58
2019-06-13 11:00:00 17.9 5 Este 15 Este 0 -- -- 63
2019-06-13 10:00:00 14.6 3 Sur 10 Sudeste 0 -- -- 71
2019-06-13 09:00:00 13.3 3 Nordeste 7 Este 0 -- -- 76
2019-06-13 08:00:00 12.6 2 Este 5 Este 0 -- -- 81
2019-06-13 07:00:00 12.5 2 Este 5 Nordeste 0 -- -- 83
2019-06-13 06:00:00 12.7 2 Este 6 Este 0 -- -- 85
2019-06-13 05:00:00 12.7 3 Sudeste 6 Sudeste 0 -- -- 86
2019-06-13 04:00:00 12.7 0 Calma 6 Oeste 0 -- -- 90
2019-06-13 03:00:00 12.8 2 Sudoeste 4 Sudoeste 0 -- -- 90
2019-06-13 02:00:00 13 0 Calma 6 Sudoeste 0 -- -- 83
2019-06-13 01:00:00 13.5 0 Calma 5 Este 0 -- -- 86
2019-06-13 00:00:00 14 0 Calma 8 Sudeste 0 -- -- 85
2019-06-12 23:00:00 14.4 2 Sudeste 9 Sur 0 -- -- 86
2019-06-12 22:00:00 14.7 4 Sur 8 Sur 0 -- -- 83
2019-06-12 21:00:00 15.4 3 Este 8 Este 0 -- -- 80
2019-06-12 20:00:00 17 4 Este 10 Este 0 -- -- 76
2019-06-12 19:00:00 18.1 4 Este 12 Sudeste 0 -- -- 73
2019-06-12 18:00:00 19.2 5 Sudeste 12 Sur 0 -- -- 69
2019-06-12 17:00:00 19.5 4 Este 15 Sudeste 0 -- -- 67
2019-06-12 16:00:00 20.3 6 Sur 15 Sudeste 0 -- -- 66
2019-06-12 15:00:00 21.5 5 Sudeste 21 Este 0 -- -- 62
2019-06-12 14:00:00 21.9 7 Este 22 Este 0 -- -- 60
2019-06-12 13:00:00 22.5 7 Este 20 Este 0 -- -- 58
2019-06-12 12:00:00 21.9 5 Este 18 Este 0 -- -- 61
2019-06-12 11:00:00 19.7 6 Este 15 Este 0 -- -- 67
2019-06-12 10:00:00 16.2 4 Este 10 Este 0 -- -- 78
2019-06-12 09:00:00 14.2 3 Nordeste 8 Sur 0 -- -- 88
2019-06-12 08:00:00 12.4 3 Oeste 9 Sudoeste 0 -- -- 93
2019-06-12 07:00:00 12.5 4 Sudeste 9 Oeste 0 -- -- 91
2019-06-12 06:00:00 13 4 Oeste 9 Oeste 0 -- -- 88
2019-06-12 05:00:00 13.8 3 Este 7 Sur 0 -- -- 91
2019-06-12 04:00:00 13.7 2 Noroeste 8 Sudeste 0 -- -- 91
2019-06-12 03:00:00 13.8 4 Sudoeste 8 Sur 0 -- -- 91
2019-06-12 02:00:00 13.8 2 Nordeste 8 Sudeste 0 -- -- 93
2019-06-12 01:00:00 13.8 4 Este 8 Nordeste 0 -- -- 92
2019-06-12 00:00:00 14.3 0 Calma 14 Sudoeste 0 -- -- 91
2019-06-11 23:00:00 14.8 4 Sudoeste 12 Norte 0 -- -- 89
2019-06-11 22:00:00 15.6 4 Norte 11 Sur 0 -- -- 83
2019-06-11 21:00:00 16.8 7 Sur 13 Sur 0 -- -- 77
2019-06-11 20:00:00 18.4 7 Sur 16 Sudoeste 0 -- -- 69
2019-06-11 19:00:00 19.7 6 Sur 16 Sudeste 0 -- -- 66
2019-06-11 18:00:00 22.7 6 Sudeste 16 Este 0 -- -- 55
2019-06-11 17:00:00 23.5 5 Sudeste 17 Sudeste 0 -- -- 52
2019-06-11 16:00:00 23.8 4 Este 20 Este 0 -- -- 50
2019-06-11 15:00:00 23.9 5 Este 19 Sudeste 0 -- -- 51
2019-06-11 14:00:00 22.9 6 Sur 20 Sudeste 0 -- -- 54
2019-06-11 13:00:00 23.5 5 Este 19 Este 0 -- -- 53
2019-06-11 12:00:00 21.5 4 Este 20 Este 0 -- -- 58
2019-06-11 11:00:00 20.7 5 Este 15 Nordeste 0 -- -- 57
2019-06-11 10:00:00 19.1 4 Nordeste 14 Este 0 -- -- 62
2019-06-11 09:00:00 16.1 3 Nordeste 12 Nordeste 0 -- -- 73
2019-06-11 08:00:00 13.6 3 Nordeste 6 Este 0 -- -- 82
2019-06-11 07:00:00 12.7 0 Calma 6 Sudoeste 0 -- -- 82
2019-06-11 06:00:00 13.1 2 Este 10 Nordeste 0 -- -- 78
2019-06-11 05:00:00 13.5 3 Sudeste 9 Oeste 0 -- -- 77
2019-06-11 04:00:00 13.4 4 Sudoeste 6 Sur 0 -- -- 79
2019-06-11 03:00:00 13.6 2 Noroeste 12 Nordeste 0 -- -- 82
2019-06-11 02:00:00 13.8 3 Nordeste 8 Este 0 -- -- 84
2019-06-11 01:00:00 13.3 3 Sudeste 6 Este 0 -- -- 91
2019-06-11 00:00:00 13.8 2 Norte 7 Sudoeste 0 -- -- 90
2019-06-10 23:00:00 14.3 3 Norte 8 Sudoeste 0 -- -- 86
2019-06-10 22:00:00 15.2 2 Nordeste 5 Este 0 -- -- 83
2019-06-10 21:00:00 16.5 3 Nordeste 8 Sur 0 -- -- 76
2019-06-10 20:00:00 18.3 4 Este 13 Sur 0 -- -- 69
2019-06-10 19:00:00 20.3 4 Este 12 Sur 0 -- -- 61
2019-06-10 18:00:00 23 4 Sudeste 17 Este 0 -- -- 53
2019-06-10 17:00:00 23.7 5 Este 21 Este 0 -- -- 51
2019-06-10 16:00:00 24.2 5 Sudeste 22 Este 0 -- -- 51
2019-06-10 15:00:00 24.5 6 Este 18 Este 0 -- -- 51
2019-06-10 14:00:00 24.2 6 Este 19 Este 0 -- -- 51
2019-06-10 13:00:00 23 5 Sudeste 17 Este 0 -- -- 54
2019-06-10 12:00:00 22.3 6 Este 17 Este 0 -- -- 55
2019-06-10 11:00:00 21.3 6 Este 14 Este 0 -- -- 53
2019-06-10 10:00:00 19.5 5 Este 12 Este 0 -- -- 56
2019-06-10 09:00:00 17 3 Nordeste 9 Nordeste 0 -- -- 45
2019-06-10 08:00:00 14.3 2 Nordeste 6 Noroeste 0 -- -- 48
2019-06-10 07:00:00 13.9 3 Este 6 Noroeste 0 -- -- 46
2019-06-10 06:00:00 14.2 3 Este 6 Sudoeste 0 -- -- 48
2019-06-10 05:00:00 15.4 3 Sudeste 9 Noroeste 0 -- -- 44
2019-06-10 04:00:00 15.3 3 Noroeste 8 Oeste 0 -- -- 41
2019-06-10 03:00:00 15.3 5 Oeste 9 Sudoeste 0 -- -- 44
2019-06-10 02:00:00 16.3 5 Sur 10 Sur 0 -- -- 44
2019-06-10 01:00:00 15.3 4 Oeste 10 Oeste 0 -- -- 48
2019-06-10 00:00:00 15.1 5 Oeste 11 Sudoeste 0 -- -- 53
2019-06-09 23:00:00 15 3 Sur 8 Sudoeste 0 -- -- 72
2019-06-09 22:00:00 15.6 4 Sudoeste 8 Sudoeste 0 -- -- 70
2019-06-09 21:00:00 16.3 3 Nordeste 7 Este 0 -- -- 71
2019-06-09 20:00:00 18.4 2 Este 10 Este 0 -- -- 63
2019-06-09 19:00:00 20.6 4 Sudeste 11 Sudeste 0 -- -- 57
2019-06-09 18:00:00 23.1 5 Este 16 Este 0 -- -- 49
2019-06-09 17:00:00 24.2 5 Este 19 Sudeste 0 -- -- 45
2019-06-09 16:00:00 23.9 6 Sudeste 19 Sudeste 0 -- -- 46
2019-06-09 15:00:00 23.4 6 Sudeste 24 Sudeste 0 -- -- 48
2019-06-09 14:00:00 23.3 6 Este 18 Sudeste 0 -- -- 48
2019-06-09 13:00:00 22.7 6 Este 17 Sudeste 0 -- -- 50
2019-06-09 12:00:00 21.3 4 Sudeste 17 Sudeste 0 -- -- 54
2019-06-09 11:00:00 19.6 4 Sudeste 19 Este 0 -- -- 60
2019-06-09 10:00:00 17.4 6 Nordeste 13 Nordeste 0 -- -- 66
2019-06-09 09:00:00 15 4 Nordeste 9 Nordeste 0 -- -- 71
2019-06-09 08:00:00 12.5 2 Norte 7 Noroeste 0 -- -- 82
2019-06-09 07:00:00 12.5 2 Noroeste 13 Noroeste 0 -- -- 82
2019-06-09 06:00:00 12.7 5 Noroeste 9 Noroeste 0 -- -- 81
2019-06-09 05:00:00 12.9 3 Norte 8 Noroeste 0 -- -- 83
2019-06-09 04:00:00 13.1 2 Este 6 Noroeste 0 -- -- 80
2019-06-09 03:00:00 13.5 2 Norte 6 Oeste 0 -- -- 85
2019-06-09 02:00:00 13.3 5 Sudoeste 9 Sudoeste 0 -- -- 88
2019-06-09 01:00:00 13.6 3 Sur 8 Sudoeste 0 -- -- 87
2019-06-09 00:00:00 14 2 Este 8 Este 0 -- -- 86
2019-06-08 23:00:00 14.2 2 Este 5 Sudoeste 0 -- -- 86
2019-06-08 22:00:00 14.2 3 Sudoeste 6 Sudoeste 0 -- -- 86
2019-06-08 21:00:00 15.7 2 Sur 6 Este 0 -- -- 82
2019-06-08 20:00:00 17.3 4 Sur 14 Sur 0 -- -- 75
2019-06-08 19:00:00 18.9 4 Sudeste 14 Sudeste 0 -- -- 69
2019-06-08 18:00:00 21.6 4 Sudeste 15 Sudeste 0 -- -- 60
2019-06-08 17:00:00 21.1 5 Sudeste 15 Este 0 -- -- 63
2019-06-08 16:00:00 20.5 7 Sudeste 19 Sudeste 0 -- -- 65
2019-06-08 15:00:00 21.2 6 Sur 19 Este 0 -- -- 62
2019-06-08 14:00:00 19.7 5 Este 26 Nordeste 0 -- -- 69
2019-06-08 13:00:00 18.5 4 Sudoeste 17 Sur 0 -- -- 72
2019-06-08 12:00:00 18.7 5 Sur 13 Este 0 -- -- 70
2019-06-08 11:00:00 18.5 5 Sur 17 Sudeste 0 -- -- 70
2019-06-08 10:00:00 18.9 3 Este 13 Este 0 -- -- 65
2019-06-08 09:00:00 14.5 4 Nordeste 8 Nordeste 0 -- -- 87
2019-06-08 08:00:00 13 2 Nordeste 5 Noroeste 0 -- -- 91
2019-06-08 07:00:00 12.3 2 Noroeste 10 Noroeste 0 -- -- 88
2019-06-08 06:00:00 12.6 3 Oeste 5 Sudoeste 0 -- -- 90
2019-06-08 05:00:00 12.7 3 Noroeste 6 Noroeste 0 -- -- 88
2019-06-08 04:00:00 13.1 3 Sudeste 5 Nordeste 0 -- -- 88
2019-06-08 03:00:00 13.3 2 Sudoeste 6 Sur 0 -- -- 87
2019-06-08 02:00:00 13.6 5 Sudoeste 7 Sudoeste 0 -- -- 87
2019-06-08 01:00:00 14.2 3 Oeste 4 Oeste 0 -- -- 80
2019-06-08 00:00:00 14.7 2 Noroeste 5 Oeste 0 -- -- 77
2019-06-07 23:00:00 15.1 3 Noroeste 7 Noroeste 0 -- -- 75
2019-06-07 22:00:00 15.9 0 Calma 6 Sudeste 0 -- -- 74
2019-06-07 21:00:00 16.8 2 Este 8 Este 0 -- -- 74
2019-06-07 20:00:00 17.9 4 Sudeste 15 Sudeste 0 -- -- 72
2019-06-07 19:00:00 19.6 5 Sudeste 18 Sur 0 -- -- 65
2019-06-07 18:00:00 21.3 8 Sur 20 Sur 0 -- -- 60
2019-06-07 17:00:00 23.6 5 Sudeste 19 Este 0 -- -- 51
2019-06-07 16:00:00 23.2 6 Este 16 Sudeste 0 -- -- 50
2019-06-07 15:00:00 22.2 7 Sudeste 28 Sur 0 -- -- 53
2019-06-07 14:00:00 21.6 9 Sur 20 Sur 0 -- -- 53
2019-06-07 13:00:00 22.7 5 Sudeste 19 Este 0 -- -- 50
2019-06-07 12:00:00 21.7 5 Este 15 Sudeste 0 -- -- 53
2019-06-07 11:00:00 19.1 5 Este 16 Este 0 -- -- 59
2019-06-07 10:00:00 17.3 5 Este 12 Sudeste 0 -- -- 65
2019-06-07 09:00:00 14.1 4 Nordeste 9 Nordeste 0 -- -- 77
2019-06-07 08:00:00 10.6 3 Noroeste 6 Noroeste 0 -- -- 86
2019-06-07 07:00:00 10 4 Noroeste 6 Noroeste 0 -- -- 89
2019-06-07 06:00:00 10.3 2 Sur 5 Oeste 0 -- -- 93
2019-06-07 05:00:00 10.2 3 Noroeste 9 Oeste 0 -- -- 86
2019-06-07 04:00:00 10.7 5 Oeste 10 Oeste 0 -- -- 91
2019-06-07 03:00:00 10.8 2 Oeste 5 Oeste 0 -- -- 91
2019-06-07 02:00:00 11.4 0 Calma 5 Oeste 0 -- -- 87
2019-06-07 01:00:00 12.1 0 Calma 4 Sudoeste 0 -- -- 86
2019-06-07 00:00:00 12.6 3 Oeste 5 Sudoeste 0 -- -- 84
2019-06-06 23:00:00 13.2 3 Sudeste 5 Sudeste 0 -- -- 87
2019-06-06 22:00:00 13.5 0 Calma 5 Sudoeste 0 -- -- 86
2019-06-06 21:00:00 14.3 4 Sur 10 Sudoeste 0 -- -- 82
2019-06-06 20:00:00 16.5 2 Sudeste 12 Sudeste 0 -- -- 71
2019-06-06 19:00:00 18.3 4 Sudeste 15 Sudeste 0 -- -- 64
2019-06-06 18:00:00 21.1 4 Este 14 Sudeste 0 -- -- 54
2019-06-06 17:00:00 21.2 6 Sudeste 21 Sudeste 0 -- -- 53
2019-06-06 16:00:00 21.3 6 Sur 21 Sudeste 0 -- -- 51
2019-06-06 15:00:00 22 8 Sudeste 21 Este 0 -- -- 50
2019-06-06 14:00:00 21.8 4 Noroeste 24 Sudeste 0 -- -- 51
2019-06-06 13:00:00 19.8 6 Sudoeste 18 Sudeste 0 -- -- 58
2019-06-06 12:00:00 18.8 6 Sur 17 Sur 0 -- -- 61
2019-06-06 11:00:00 17.2 4 Noroeste 15 Sudeste 0 -- -- 67
2019-06-06 10:00:00 15.2 6 Sur 11 Sur 0 -- -- 74
2019-06-06 09:00:00 13.8 3 Este 6 Sudeste 0 -- -- 78
2019-06-06 08:00:00 13.3 2 Este 6 Nordeste 0 -- -- 78
2019-06-06 07:00:00 13.5 0 Calma 5 Sudeste 0 -- -- 81
2019-06-06 06:00:00 13.4 0 Calma 6 Sudeste 0 -- -- 81
2019-06-06 05:00:00 13.6 3 Este 5 Este 0 -- -- 82
2019-06-06 04:00:00 13.9 2 Este 7 Sudeste 0 -- -- 84
2019-06-06 03:00:00 14.2 0 Calma 7 Sudeste 0 -- -- 85
2019-06-06 02:00:00 14.7 3 Este 9 Este 0 -- -- 88
2019-06-06 01:00:00 14.6 2 Este 6 Nordeste 0 -- -- 81
2019-06-06 00:00:00 14.6 2 Este 7 Sudeste 0 -- -- 85
2019-06-05 23:00:00 14.9 2 Sur 6 Sur 0 -- -- 86
2019-06-05 22:00:00 15.6 3 Sur 9 Sur 0 -- -- 83
2019-06-05 21:00:00 16.3 3 Sur 12 Sur 0 -- -- 80
2019-06-05 20:00:00 18 3 Sudeste 10 Sur 0 -- -- 71
2019-06-05 19:00:00 18.6 4 Sudeste 12 Este 0 -- -- 71
2019-06-05 18:00:00 19.5 4 Este 13 Sudeste 0 -- -- 70
2019-06-05 17:00:00 19.6 4 Sur 15 Sur 0 -- -- 69
2019-06-05 16:00:00 20.3 4 Sudeste 23 Sudeste 0 -- -- 66
2019-06-05 15:00:00 21.1 8 Sudeste 22 Sudeste 0 -- -- 64
2019-06-05 14:00:00 22.4 8 Sur 22 Este 0 -- -- 59
2019-06-05 13:00:00 23.4 6 Este 22 Sur 0 -- -- 55
2019-06-05 12:00:00 21.8 6 Sur 19 Sur 0 -- -- 58
2019-06-05 11:00:00 21.8 4 Este 15 Este 0 -- -- 56
2019-06-05 10:00:00 20.8 6 Este 14 Nordeste 0 -- -- 58
2019-06-05 09:00:00 18.8 4 Este 10 Nordeste 0 -- -- 64
2019-06-05 08:00:00 15.5 3 Norte 9 Sur 0 -- -- 69
2019-06-05 07:00:00 15 3 Noroeste 8 Oeste 0 -- -- 60
2019-06-05 06:00:00 14.9 0 Calma 8 Oeste 0 -- -- 67
2019-06-05 05:00:00 14.5 4 Noroeste 6 Este 0 -- -- 77
2019-06-05 04:00:00 16.6 2 Sudeste 4 Nordeste 0 -- -- 59
2019-06-05 03:00:00 17.6 3 Noroeste 8 Noroeste 0 -- -- 59
2019-06-05 02:00:00 18.1 2 Norte 5 Oeste 0 -- -- 57
2019-06-05 01:00:00 18.1 5 Oeste 8 Oeste 0 -- -- 61
2019-06-05 00:00:00 18.2 5 Oeste 8 Oeste 0 -- -- 63
2019-06-04 23:00:00 18.9 0 Calma 5 Oeste 0 -- -- 63
2019-06-04 22:00:00 20 3 Sur 5 Sudoeste 0 -- -- 59
2019-06-04 21:00:00 20.8 3 Sudeste 6 Este 0 -- -- 56
2019-06-04 20:00:00 22.6 3 Este 13 Sudeste 0 -- -- 48
2019-06-04 19:00:00 24.8 4 Sudeste 16 Sudeste 0 -- -- 43
2019-06-04 18:00:00 27.3 5 Sudeste 20 Sudeste 0 -- -- 38
2019-06-04 17:00:00 28.1 5 Sudeste 22 Sudeste 0 -- -- 35
2019-06-04 16:00:00 28.3 6 Sur 20 Este 0 -- -- 36
2019-06-04 15:00:00 28.5 6 Sudeste 20 Sudeste 0 -- -- 34
2019-06-04 14:00:00 29.4 7 Sudeste 21 Sudeste 0 -- -- 31
2019-06-04 13:00:00 28.9 6 Sur 18 Este 0 -- -- 29
2019-06-04 12:00:00 29.6 5 Este 15 Este 0 -- -- 27
2019-06-04 11:00:00 28.1 4 Nordeste 15 Nordeste 0 -- -- 24
2019-06-04 10:00:00 26.9 4 Este 10 Este 0 -- -- 23
2019-06-04 09:00:00 26.1 4 Sur 9 Sudeste 0 -- -- 18
2019-06-04 08:00:00 25.1 4 Este 11 Sudeste 0 -- -- 16
2019-06-04 07:00:00 24.2 6 Sur 11 Sudeste 0 -- -- 17
2019-06-04 06:00:00 23.5 2 Norte 14 Norte 0 -- -- 20
2019-06-04 05:00:00 25.7 4 Nordeste 22 Nordeste 0 -- -- 17
2019-06-04 04:00:00 25.5 6 Noroeste 19 Este 0 -- -- 17
2019-06-04 03:00:00 25 6 Sudoeste 21 Sudoeste 0 -- -- 16
2019-06-04 02:00:00 25.2 5 Sur 25 Nordeste 0 -- -- 15
2019-06-04 01:00:00 26.2 5 Sudoeste 45 Nordeste 0 -- -- 15
2019-06-04 00:00:00 27.1 30 Nordeste 53 Nordeste 0 -- -- 14
2019-06-03 23:00:00 27.1 31 Nordeste 57 Nordeste 0 -- -- 13
2019-06-03 22:00:00 27.1 35 Nordeste 61 Nordeste 0 -- -- 14
2019-06-03 21:00:00 27.2 32 Nordeste 61 Nordeste 0 -- -- 13
2019-06-03 20:00:00 27.7 31 Nordeste 55 Nordeste 0 -- -- 11
2019-06-03 19:00:00 29 6 Este 21 Este 0 -- -- 17
2019-06-03 18:00:00 31 5 Sudeste 17 Este 0 -- -- 20
2019-06-03 17:00:00 32.9 4 Este 17 Este 0 -- -- 26
2019-06-03 16:00:00 34.2 5 Este 19 Sudeste 0 -- -- 24
2019-06-03 15:00:00 34.7 6 Este 21 Sudeste 0 -- -- 21
2019-06-03 14:00:00 35.3 6 Este 29 Este 0 -- -- 23
2019-06-03 13:00:00 33.7 17 Este 34 Nordeste 0 -- -- 16
2019-06-03 12:00:00 33.5 13 Este 40 Nordeste 0 -- -- 16
2019-06-03 11:00:00 32.1 15 Nordeste 35 Este 0 -- -- 16
2019-06-03 10:00:00 31 14 Nordeste 38 Nordeste 0 -- -- 16
2019-06-03 09:00:00 29 12 Nordeste 32 Nordeste 0 -- -- 17
2019-06-03 08:00:00 27 13 Nordeste 33 Nordeste 0 -- -- 17
2019-06-03 07:00:00 26.3 10 Nordeste 42 Nordeste 0 -- -- 17
2019-06-03 06:00:00 26.5 16 Nordeste 38 Este 0 -- -- 17
2019-06-03 05:00:00 26.6 15 Nordeste 40 Este 0 -- -- 17
2019-06-03 04:00:00 26.3 13 Nordeste 42 Nordeste 0 -- -- 16
2019-06-03 03:00:00 26.6 15 Nordeste 43 Nordeste 0 -- -- 15
2019-06-03 02:00:00 26.1 14 Nordeste 54 Nordeste 0 -- -- 15
2019-06-03 01:00:00 26.4 15 Nordeste 48 Nordeste 0 -- -- 15
2019-06-03 00:00:00 25.4 8 Norte 40 Este 0 -- -- 16
2019-06-02 23:00:00 25.7 8 Sudeste 39 Nordeste 0 -- -- 26
2019-06-02 22:00:00 26.7 14 Nordeste 43 Nordeste 0 -- -- 26
2019-06-02 21:00:00 26.4 4 Sur 34 Sudeste 0 -- -- 29
2019-06-02 20:00:00 26.8 5 Sudeste 12 Sudeste 0 -- -- 47
2019-06-02 19:00:00 26.8 4 Este 14 Este 0 -- -- 46
2019-06-02 18:00:00 30.4 3 Este 14 Este 0 -- -- 37
2019-06-02 17:00:00 31.5 5 Este 18 Sudeste 0 -- -- 37
2019-06-02 16:00:00 32.7 4 Sudeste 19 Este 0 -- -- 31
2019-06-02 15:00:00 32.8 6 Sudeste 23 Este 0 -- -- 28
2019-06-02 14:00:00 32.7 8 Sudeste 24 Este 0 -- -- 26
2019-06-02 13:00:00 33.2 8 Este 23 Sudeste 0 -- -- 25
2019-06-02 12:00:00 32.7 8 Este 28 Este 0 -- -- 23
2019-06-02 11:00:00 31.7 8 Este 20 Este 0 -- -- 22
2019-06-02 10:00:00 29.6 4 Sudeste 14 Este 0 -- -- 21
2019-06-02 09:00:00 28.5 6 Nordeste 20 Este 0 -- -- 24
2019-06-02 08:00:00 25.5 4 Este 15 Norte 0 -- -- 27
2019-06-02 07:00:00 24.3 5 Sudoeste 12 Oeste 0 -- -- 26
2019-06-02 06:00:00 23.6 7 Oeste 12 Oeste 0 -- -- 21
2019-06-02 05:00:00 24 4 Este 13 Este 0 -- -- 25
2019-06-02 04:00:00 23.7 5 Oeste 13 Sudeste 0 -- -- 25
2019-06-02 03:00:00 21.8 4 Sudeste 13 Sudoeste 0 -- -- 32
2019-06-02 02:00:00 20.5 8 Sudoeste 12 Sudoeste 0 -- -- 38
2019-06-02 01:00:00 20.4 6 Sur 11 Sur 0 -- -- 41
2019-06-02 00:00:00 21 0 Calma 9 Oeste 0 -- -- 36
2019-06-01 23:00:00 22.7 4 Sur 12 Sur 0 -- -- 39
2019-06-01 22:00:00 24.4 3 Oeste 5 Noroeste 0 -- -- 22
2019-06-01 21:00:00 25 3 Oeste 4 Oeste 0 -- -- 23
2019-06-01 20:00:00 25.6 3 Oeste 5 Noroeste 0 -- -- 39
2019-06-01 19:00:00 25.1 4 Este 10 Este 0 -- -- 55
2019-06-01 18:00:00 26.7 4 Este 12 Este 0 -- -- 50
2019-06-01 17:00:00 27 5 Este 15 Este 0 -- -- 50
2019-06-01 16:00:00 27.4 6 Este 16 Este 0 -- -- 49
2019-06-01 15:00:00 28.1 7 Este 19 Este 0 -- -- 47
2019-06-01 14:00:00 28.4 5 Este 16 Este 0 -- -- 46
2019-06-01 13:00:00 27.7 6 Este 15 Este 0 -- -- 47
2019-06-01 12:00:00 26.3 6 Este 16 Este 0 -- -- 49
2019-06-01 11:00:00 26.6 5 Este 13 Este 0 -- -- 45
2019-06-01 10:00:00 26 4 Nordeste 9 Este 0 -- -- 41
2019-06-01 09:00:00 26.3 3 Nordeste 6 Sur 0 -- -- 28
2019-06-01 08:00:00 24.3 3 Sur 9 Sur 0 -- -- 29
2019-06-01 07:00:00 24 5 Sudoeste 10 Sudoeste 0 -- -- 29
2019-06-01 06:00:00 23.5 5 Sur 24 Sudeste 0 -- -- 30
2019-06-01 05:00:00 22.5 2 Sudeste 10 Sudoeste 0 -- -- 36
2019-06-01 04:00:00 22.5 4 Sudoeste 7 Noroeste 0 -- -- 31
2019-06-01 03:00:00 21.6 4 Oeste 9 Oeste 0 -- -- 40
2019-06-01 02:00:00 20.9 3 Este 8 Noroeste 0 -- -- 47
2019-06-01 01:00:00 20.8 4 Nordeste 9 Este 0 -- -- 56
2019-06-01 00:00:00 22.9 3 Sur 8 Noroeste 0 -- -- 38
2019-05-31 23:00:00 23.7 4 Sudeste 5 Sudeste 0 -- -- 45
2019-05-31 22:00:00 23.2 3 Noroeste 7 Sudoeste 0 -- -- 43
2019-05-31 21:00:00 23.5 4 Sudoeste 6 Sudoeste 0 -- -- 53
2019-05-31 20:00:00 24.1 0 Calma 8 Este 0 -- -- 56
2019-05-31 19:00:00 25.2 4 Este 12 Este 0 -- -- 53
2019-05-31 18:00:00 26.8 5 Este 14 Este 0 -- -- 49
2019-05-31 17:00:00 27.4 6 Este 14 Sudeste 0 -- -- 47
2019-05-31 16:00:00 28.2 5 Este 16 Este 0 -- -- 45
2019-05-31 15:00:00 28.3 7 Este 15 Este 0 -- -- 45
2019-05-31 14:00:00 27.6 6 Este 15 Este 0 -- -- 46
2019-05-31 13:00:00 28.3 7 Este 19 Este 0 -- -- 44
2019-05-31 12:00:00 28.3 6 Este 13 Este 0 -- -- 31
2019-05-31 11:00:00 28 5 Este 17 Nordeste 0 -- -- 22
2019-05-31 10:00:00 26.7 4 Este 9 Este 0 -- -- 24
2019-05-31 09:00:00 24.3 4 Nordeste 8 Nordeste 0 -- -- 20
2019-05-31 08:00:00 20.5 2 Oeste 5 Oeste 0 -- -- 27
2019-05-31 07:00:00 18.8 5 Oeste 8 Sudoeste 0 -- -- 26
2019-05-31 06:00:00 19.4 4 Sudoeste 9 Oeste 0 -- -- 25
2019-05-31 05:00:00 19.5 4 Sudoeste 9 Sur 0 -- -- 28
2019-05-31 04:00:00 20.4 5 Sudoeste 9 Sudoeste 0 -- -- 29
2019-05-31 03:00:00 20 4 Oeste 7 Sudoeste 0 -- -- 51
2019-05-31 02:00:00 20.1 6 Oeste 7 Oeste 0 -- -- 51
2019-05-31 01:00:00 20.5 3 Sudoeste 6 Sudoeste 0 -- -- 49
2019-05-31 00:00:00 20.6 4 Sudoeste 6 Noroeste 0 -- -- 56
2019-05-30 23:00:00 21.1 2 Oeste 4 Sudeste 0 -- -- 59
2019-05-30 22:00:00 21.7 0 Calma 5 Sudoeste 0 -- -- 59
2019-05-30 21:00:00 22.2 2 Noroeste 6 Oeste 0 -- -- 58
2019-05-30 20:00:00 21.9 0 Calma 7 Este 0 -- -- 60
2019-05-30 19:00:00 23.4 4 Este 12 Sudeste 0 -- -- 55
2019-05-30 18:00:00 25.6 7 Este 15 Este 0 -- -- 49
2019-05-30 17:00:00 27.2 5 Este 18 Este 0 -- -- 45
2019-05-30 16:00:00 28 6 Este 19 Este 0 -- -- 43
2019-05-30 15:00:00 27.7 7 Este 20 Este 0 -- -- 44
2019-05-30 14:00:00 27 6 Este 16 Este 0 -- -- 46
2019-05-30 13:00:00 26.9 8 Este 16 Este 0 -- -- 45
2019-05-30 12:00:00 26.3 5 Este 15 Este 0 -- -- 43
2019-05-30 11:00:00 24.8 6 Nordeste 14 Este 0 -- -- 42
2019-05-30 10:00:00 24 5 Nordeste 11 Este 0 -- -- 37
2019-05-30 09:00:00 22.6 4 Nordeste 9 Nordeste 0 -- -- 30
2019-05-30 08:00:00 18.7 3 Noroeste 5 Noroeste 0 -- -- 34
2019-05-30 07:00:00 17.7 4 Noroeste 7 Noroeste 0 -- -- 35
2019-05-30 06:00:00 18.4 2 Este 4 Oeste 0 -- -- 35
2019-05-30 05:00:00 18.5 0 Calma 4 Sudoeste 0 -- -- 34
2019-05-30 04:00:00 19.3 3 Sur 8 Oeste 0 -- -- 32
2019-05-30 03:00:00 18.8 5 Sudoeste 8 Sudoeste 0 -- -- 40
2019-05-30 02:00:00 19.3 4 Sudoeste 6 Sudoeste 0 -- -- 42
2019-05-30 01:00:00 18.8 4 Oeste 6 Oeste 0 -- -- 69
2019-05-30 00:00:00 18.8 0 Calma 4 Sudoeste 0 -- -- 67
2019-05-29 23:00:00 18.9 0 Calma 5 Sudoeste 0 -- -- 68
2019-05-29 22:00:00 19.1 2 Oeste 4 Oeste 0 -- -- 68
2019-05-29 21:00:00 19.2 0 Calma 4 Este 0 -- -- 67
2019-05-29 20:00:00 20.5 3 Este 8 Este 0 -- -- 63
2019-05-29 19:00:00 22.3 4 Este 14 Este 0 -- -- 56
2019-05-29 18:00:00 25 3 Este 16 Este 0 -- -- 51
2019-05-29 17:00:00 25.8 5 Este 19 Este 0 -- -- 49
2019-05-29 16:00:00 26 6 Este 18 Este 0 -- -- 49
2019-05-29 15:00:00 25.1 8 Este 19 Este 0 -- -- 52
2019-05-29 14:00:00 25.4 6 Este 18 Este 0 -- -- 51
2019-05-29 13:00:00 25.4 8 Este 21 Este 0 -- -- 48
2019-05-29 12:00:00 25.9 6 Este 18 Este 0 -- -- 47
2019-05-29 11:00:00 24.2 6 Este 15 Este 0 -- -- 49
2019-05-29 10:00:00 22.8 5 Nordeste 13 Este 0 -- -- 49
2019-05-29 09:00:00 21.2 3 Nordeste 9 Nordeste 0 -- -- 45
2019-05-29 08:00:00 17.1 4 Noroeste 6 Noroeste 0 -- -- 55
2019-05-29 07:00:00 16.8 4 Oeste 6 Oeste 0 -- -- 58
2019-05-29 06:00:00 16.9 4 Sudoeste 6 Oeste 0 -- -- 61
2019-05-29 05:00:00 17.2 2 Sudeste 5 Noroeste 0 -- -- 65
2019-05-29 04:00:00 17.4 4 Oeste 7 Noroeste 0 -- -- 64
2019-05-29 03:00:00 17.5 3 Oeste 6 Sudoeste 0 -- -- 67
2019-05-29 02:00:00 18.1 5 Sudoeste 6 Sudoeste 0 -- -- 65
2019-05-29 01:00:00 18.6 0 Calma 5 Oeste 0 -- -- 66
2019-05-29 00:00:00 18.6 3 Oeste 8 Sudoeste 0 -- -- 67
2019-05-28 23:00:00 19.1 5 Sudoeste 8 Sudoeste 0 -- -- 70
2019-05-28 22:00:00 18.8 4 Oeste 5 Oeste 0 -- -- 69
2019-05-28 21:00:00 19.4 4 Oeste 5 Sudoeste 0 -- -- 69
2019-05-28 20:00:00 20.7 3 Este 9 Este 0 -- -- 65
2019-05-28 19:00:00 23.2 2 Este 13 Sudeste 0 -- -- 58
2019-05-28 18:00:00 25.2 4 Este 17 Este 0 -- -- 53
2019-05-28 17:00:00 26.1 4 Este 19 Este 0 -- -- 52
2019-05-28 16:00:00 26.7 6 Este 18 Este 0 -- -- 50
2019-05-28 15:00:00 27.6 4 Este 17 Este 0 -- -- 48
2019-05-28 14:00:00 27.7 5 Este 20 Este 0 -- -- 45
2019-05-28 13:00:00 27.6 5 Nordeste 22 Sudeste 0 -- -- 42
2019-05-28 12:00:00 26 6 Este 19 Este 0 -- -- 43
2019-05-28 11:00:00 26.5 4 Este 13 Nordeste 0 -- -- 44
2019-05-28 10:00:00 23.9 4 Este 14 Nordeste 0 -- -- 42
2019-05-28 09:00:00 21.5 3 Este 11 Sur 0 -- -- 34
2019-05-28 08:00:00 18.2 4 Oeste 10 Oeste 0 -- -- 38
2019-05-28 07:00:00 17.3 9 Sudoeste 15 Oeste 0 -- -- 40
2019-05-28 06:00:00 17.9 6 Sudoeste 14 Sudoeste 0 -- -- 37
2019-05-28 05:00:00 18.9 8 Sur 12 Sur 0 -- -- 36
2019-05-28 04:00:00 19.4 3 Nordeste 18 Nordeste 0 -- -- 32
2019-05-28 03:00:00 20.2 5 Sur 26 Nordeste 0 -- -- 32
2019-05-28 02:00:00 19.9 6 Norte 21 Norte 0 -- -- 33
2019-05-28 01:00:00 19.1 4 Norte 11 Este 0 -- -- 35
2019-05-28 00:00:00 19.1 8 Sur 12 Sur 0 -- -- 39
2019-05-27 23:00:00 18.6 5 Sudoeste 9 Sur 0 -- -- 42
2019-05-27 22:00:00 18.9 3 Este 9 Sudoeste 0 -- -- 45
2019-05-27 21:00:00 19.7 2 Sudoeste 8 Este 0 -- -- 48
2019-05-27 20:00:00 22.1 3 Este 13 Sudeste 0 -- -- 43
2019-05-27 19:00:00 24.8 4 Sudeste 14 Sudeste 0 -- -- 35
2019-05-27 18:00:00 27 6 Sudeste 17 Sur 0 -- -- 31
2019-05-27 17:00:00 26.2 5 Este 22 Este 0 -- -- 30
2019-05-27 16:00:00 26.2 6 Sudeste 24 Sur 0 -- -- 35
2019-05-27 15:00:00 26 9 Sudeste 24 Sur 0 -- -- 37
2019-05-27 14:00:00 27.2 6 Sur 23 Sur 0 -- -- 28
2019-05-27 13:00:00 26.8 7 Sudeste 21 Sudeste 0 -- -- 26
2019-05-27 12:00:00 26.2 8 Sur 21 Sudeste 0 -- -- 20
2019-05-27 11:00:00 24.8 8 Sur 17 Sur 0 -- -- 24
2019-05-27 10:00:00 22.8 3 Este 10 Sur 0 -- -- 29
2019-05-27 09:00:00 19.8 3 Noroeste 10 Sur 0 -- -- 34
2019-05-27 08:00:00 16.7 6 Sudoeste 12 Sudoeste 0 -- -- 40
2019-05-27 07:00:00 16 5 Sudoeste 10 Sudoeste 0 -- -- 43
2019-05-27 06:00:00 16.2 8 Sudoeste 12 Sudoeste 0 -- -- 42
2019-05-27 05:00:00 16.2 5 Sudoeste 12 Sudoeste 0 -- -- 47
2019-05-27 04:00:00 16.4 7 Sudoeste 16 Sudoeste 0 -- -- 47
2019-05-27 03:00:00 16.6 6 Sudoeste 13 Sur 0 -- -- 43
2019-05-27 02:00:00 17.1 8 Sudoeste 13 Sur 0 -- -- 42
2019-05-27 01:00:00 16.7 3 Sudoeste 6 Oeste 0 -- -- 46
2019-05-27 00:00:00 17.3 0 Calma 4 Sur 0 -- -- 45